createdAt,value
2023-01-02T00:01:03.483Z,11.88
2023-01-02T00:08:05.470Z,14.27
2023-01-02T00:15:07.350Z,9.07
2023-01-02T00:22:09.040Z,13.20
2023-01-02T00:29:10.695Z,10.27
2023-01-02T00:36:12.837Z,11.13
2023-01-02T00:43:14.449Z,7.57
2023-01-02T00:50:16.171Z,10.18
2023-01-02T00:57:17.751Z,12.90
2023-01-02T01:04:19.396Z,11.13
2023-01-02T01:11:21.130Z,9.55
2023-01-02T01:18:22.741Z,12.35
2023-01-02T01:25:24.355Z,9.45
2023-01-02T01:32:26.018Z,11.27
2023-01-02T01:39:27.760Z,9.32
2023-01-02T01:46:36.918Z,10.70
2023-01-02T01:53:38.575Z,11.95
2023-01-02T02:00:40.565Z,10.75
2023-01-02T02:07:44.956Z,12.13
2023-01-02T02:14:46.587Z,8.95
2023-01-02T02:22:09.930Z,7.32
2023-01-02T02:29:59.608Z,10.38
2023-01-02T02:37:08.100Z,15.37
2023-01-02T02:44:20.576Z,9.98
2023-01-02T02:52:03.516Z,9.55
2023-01-02T02:59:05.164Z,8.63
2023-01-02T03:06:18.880Z,11.25
2023-01-02T03:13:40.921Z,9.50
2023-01-02T03:20:45.354Z,8.43
2023-01-02T03:27:46.996Z,8.88
2023-01-02T03:34:48.743Z,13.48
2023-01-02T03:41:56.485Z,7.78
2023-01-02T03:49:12.147Z,8.77
2023-01-02T03:56:20.329Z,8.70
2023-01-02T04:03:26.111Z,11.00
2023-01-02T04:10:28.581Z,7.78
2023-01-02T04:17:31.837Z,8.35
2023-01-02T04:24:35.848Z,8.93
2023-01-02T04:31:42.437Z,9.23
2023-01-02T04:38:44.700Z,11.05
2023-01-02T04:45:50.292Z,9.02
2023-01-02T04:52:51.997Z,9.68
2023-01-02T04:59:53.609Z,9.75
2023-01-02T05:06:55.245Z,9.68
2023-01-02T05:13:57.729Z,8.93
2023-01-02T05:21:07.163Z,9.75
2023-01-02T05:28:08.851Z,9.63
2023-01-02T05:35:10.471Z,9.55
2023-01-02T05:42:12.098Z,10.15
2023-01-02T05:49:13.679Z,9.75
2023-01-02T05:56:16.859Z,9.85
2023-01-02T06:03:18.537Z,8.35
2023-01-02T06:10:20.132Z,9.45
2023-01-02T06:17:22.575Z,9.32
2023-01-02T06:24:24.184Z,8.90
2023-01-02T06:31:28.130Z,8.65
2023-01-02T06:38:29.894Z,8.50
2023-01-02T06:45:31.563Z,9.95
2023-01-02T06:52:33.221Z,8.27
2023-01-02T06:59:34.920Z,9.65
2023-01-02T07:06:36.515Z,10.52
2023-01-02T07:13:38.816Z,10.30
2023-01-02T07:20:40.402Z,8.40
2023-01-02T07:27:41.976Z,8.15
2023-01-02T07:34:43.614Z,8.27
2023-01-02T07:41:45.592Z,8.85
2023-01-02T07:48:50.374Z,6.90
2023-01-02T07:55:56.045Z,7.82
2023-01-02T08:02:57.683Z,8.00
2023-01-02T08:09:59.326Z,6.32
2023-01-02T08:17:00.944Z,10.55
2023-01-02T08:24:02.796Z,7.55
2023-01-02T08:31:12.300Z,9.13
2023-01-02T08:38:14.383Z,8.93
2023-01-02T08:45:16.413Z,9.95
2023-01-02T08:52:18.020Z,7.50
2023-01-02T08:59:20.059Z,14.95
2023-01-02T09:06:22.780Z,8.55
2023-01-02T09:13:24.434Z,8.35
2023-01-02T09:20:26.301Z,10.73
2023-01-02T09:27:27.930Z,10.15
2023-01-02T09:34:29.580Z,11.63
2023-01-02T09:41:39.685Z,10.48
2023-01-02T09:55:42.755Z,11.60
2023-01-02T10:02:56.402Z,8.82
2023-01-02T10:10:10.639Z,8.73
2023-01-02T10:17:13.160Z,8.85
2023-01-02T10:24:25.489Z,6.72
2023-01-02T10:31:43.771Z,6.78
2023-01-02T10:38:45.434Z,10.82
2023-01-02T10:45:47.214Z,8.07
2023-01-02T10:52:53.378Z,10.05
2023-01-02T10:59:57.252Z,10.98
2023-01-02T11:07:00.647Z,8.95
2023-01-02T11:14:07.170Z,7.03
2023-01-02T11:21:08.826Z,13.45
2023-01-02T11:28:22.453Z,11.15
2023-01-02T11:35:54.319Z,8.10
2023-01-02T11:43:16.555Z,7.70
2023-01-02T11:50:27.833Z,7.75
2023-01-02T11:57:36.099Z,10.00
2023-01-02T12:04:37.771Z,8.27
2023-01-02T12:11:45.174Z,8.05
2023-01-02T12:19:07.877Z,9.45
2023-01-02T12:26:14.022Z,7.20
2023-01-02T12:33:19.411Z,16.25
2023-01-02T12:40:49.298Z,11.30
2023-01-02T12:47:57.446Z,10.95
2023-01-02T12:55:17.065Z,9.68
2023-01-02T13:02:44.874Z,8.45
2023-01-02T13:09:46.657Z,9.10
2023-01-02T13:16:56.133Z,9.68
2023-01-02T13:23:57.794Z,7.90
2023-01-02T13:31:44.089Z,6.95
2023-01-02T13:38:28.880Z,10.50
2023-01-02T13:45:34.943Z,10.45
2023-01-02T13:52:36.557Z,6.95
2023-01-02T13:59:42.804Z,8.00
2023-01-02T14:06:53.581Z,8.57
2023-01-02T14:13:55.842Z,10.48
2023-01-02T14:20:57.629Z,7.95
2023-01-02T14:28:03.546Z,8.70
2023-01-02T14:35:14.268Z,9.80
2023-01-02T14:42:52.688Z,11.07
2023-01-02T14:49:58.319Z,7.28
2023-01-02T14:57:26.878Z,12.80
2023-01-02T15:04:41.165Z,9.82
2023-01-02T15:12:14.793Z,7.25
2023-01-02T15:19:22.018Z,7.97
2023-01-02T15:26:33.519Z,9.80
2023-01-02T15:33:35.938Z,10.43
2023-01-02T15:40:39.554Z,8.52
2023-01-02T15:47:45.114Z,3.50
2023-01-02T15:54:46.937Z,6.15
2023-01-02T16:01:48.683Z,3.90
2023-01-02T16:08:55.052Z,4.07
2023-01-02T16:16:16.313Z,4.75
2023-01-02T16:23:19.823Z,2.65
2023-01-02T16:30:28.502Z,6.63
2023-01-02T16:37:34.864Z,5.05
2023-01-02T16:44:36.583Z,5.40
2023-01-02T16:51:42.661Z,7.55
2023-01-02T16:58:44.468Z,3.97
2023-01-02T17:06:01.337Z,4.05
2023-01-02T17:13:04.383Z,7.32
2023-01-02T17:20:07.460Z,3.65
2023-01-02T17:27:09.093Z,1.77
2023-01-02T17:34:11.070Z,5.18
2023-01-02T17:41:12.679Z,3.25
2023-01-02T17:48:17.326Z,2.53
2023-01-02T17:55:23.594Z,1.85
2023-01-02T18:02:25.345Z,4.13
2023-01-02T18:09:27.516Z,3.50
2023-01-02T18:16:33.515Z,2.90
2023-01-02T18:23:35.270Z,3.95
2023-01-02T18:30:36.979Z,4.25
2023-01-02T18:37:38.895Z,6.65
2023-01-02T18:44:41.213Z,5.57
2023-01-02T18:51:42.884Z,5.43
2023-01-02T18:59:06.346Z,2.55
2023-01-02T19:06:17.202Z,2.78
2023-01-02T19:13:31.456Z,3.95
2023-01-02T19:20:33.167Z,1.25
2023-01-02T19:27:37.015Z,1.80
2023-01-02T19:34:46.660Z,4.40
2023-01-02T19:42:06.819Z,3.33
2023-01-02T19:49:08.457Z,3.13
2023-01-02T19:56:10.061Z,2.60
2023-01-02T20:03:12.277Z,4.90
2023-01-02T20:10:14.047Z,2.80
2023-01-02T20:17:15.765Z,3.95
2023-01-02T20:24:17.660Z,6.10
2023-01-02T20:31:19.357Z,2.58
2023-01-02T20:38:21.395Z,3.83
2023-01-02T20:45:23.022Z,5.07
2023-01-02T20:52:24.683Z,4.60
2023-01-02T20:59:26.535Z,6.15
2023-01-02T21:06:28.465Z,8.02
2023-01-02T21:13:30.105Z,7.05
2023-01-02T21:20:31.704Z,5.40
2023-01-02T21:27:33.312Z,4.78
2023-01-02T21:34:34.940Z,7.13
2023-01-02T21:41:55.326Z,4.70
2023-01-02T21:48:57.028Z,8.57
2023-01-02T21:55:58.654Z,4.35
2023-01-02T22:03:00.364Z,8.75
2023-01-02T22:10:02.162Z,4.10
2023-01-02T22:17:08.497Z,3.75
2023-01-02T22:24:10.260Z,7.20
2023-01-02T22:31:12.119Z,5.00
2023-01-02T22:38:13.949Z,3.80
2023-01-02T22:45:20.379Z,7.22
2023-01-02T22:52:21.976Z,5.22
2023-01-02T22:59:23.557Z,5.72
2023-01-02T23:06:25.306Z,6.22
2023-01-02T23:13:27.084Z,7.85
2023-01-02T23:20:28.866Z,5.78
2023-01-02T23:27:30.525Z,6.05
2023-01-02T23:34:32.167Z,7.00
2023-01-02T23:41:34.462Z,5.57
2023-01-02T23:48:36.736Z,6.63
2023-01-02T23:55:42.914Z,6.53
